Schneifelwetter: Wetterstation Hallschlag, 537 m . NN
Wetterdaten: Sonntag, 04.11.2012
Datum Zeit Temp. A. Feuchte A. Luftdruck Regen Wind Richtung Richtung Sonnenschein T Regen Taupunkt Windchill
04.11.2012 00:00 3,5 C 98 % 1002 hPa 0,0 l/m 16,2 km/h (3 Bft) SW45 230 0 min 0 min 3,2 C -3,4 C
04.11.2012 00:15 3,5 C 98 % 1002 hPa 0,0 l/m 18,4 km/h (3 Bft) W-SW22.5 255 0 min 0 min 3,2 C -4,4 C
04.11.2012 00:30 3,5 C 98 % 1002 hPa 0,0 l/m 13,0 km/h (3 Bft) SW22.5 235 0 min 0 min 3,2 C -1,6 C
04.11.2012 00:45 3,5 C 98 % 1002 hPa 0,0 l/m 24,0 km/h (4 Bft) W-SW 255 0 min 0 min 3,2 C -6,6 C
04.11.2012 01:00 3,5 C 98 % 1002 hPa 0,0 l/m 8,1 km/h (2 Bft) W-SW 250 0 min 0 min 3,2 C 1,9 C
04.11.2012 01:15 3,6 C 98 % 1003 hPa 0,0 l/m 11,7 km/h (2 Bft) SW45 215 0 min 0 min 3,3 C -0,7 C
04.11.2012 01:30 3,5 C 98 % 1002 hPa 0,0 l/m 7,7 km/h (2 Bft) S-SW22.5 210 0 min 0 min 3,2 C 2,3 C
04.11.2012 01:45 3,4 C 98 % 1002 hPa 0,0 l/m 4,8 km/h (1 Bft) S-SW 210 0 min 0 min 3,1 C 3,4 C
04.11.2012 02:00 3,1 C 98 % 1002 hPa 0,0 l/m 4,6 km/h (1 Bft) SW 220 0 min 0 min 2,8 C 3,1 C
04.11.2012 02:15 2,7 C 98 % 1003 hPa 0,0 l/m 7,9 km/h (2 Bft) SW22.5 220 0 min 0 min 2,4 C 1,3 C
04.11.2012 02:30 2,4 C 98 % 1003 hPa 0,0 l/m 6,9 km/h (2 Bft) S 190 0 min 0 min 2,1 C 1,9 C
04.11.2012 02:45 2,1 C 98 % 1002 hPa 0,0 l/m 6,5 km/h (2 Bft) S-SO 165 0 min 0 min 1,8 C 2,0 C
04.11.2012 03:00 1,7 C 97 % 1002 hPa 0,0 l/m 8,3 km/h (2 Bft) S 190 0 min 0 min 1,3 C -0,1 C
04.11.2012 03:15 1,9 C 98 % 1002 hPa 0,0 l/m 8,7 km/h (2 Bft) S-SW22.5 200 0 min 0 min 1,6 C -0,3 C
04.11.2012 03:30 1,5 C 97 % 1002 hPa 0,0 l/m 3,4 km/h (1 Bft) S 185 0 min 0 min 1,1 C 1,5 C
04.11.2012 03:45 1,3 C 97 % 1002 hPa 0,0 l/m 5,6 km/h (1 Bft) S 185 0 min 0 min 0,9 C 1,3 C
04.11.2012 04:00 0,9 C 97 % 1002 hPa 0,0 l/m 0,3 km/h (0 Bft) S 190 0 min 0 min 0,5 C 0,9 C
04.11.2012 04:15 0,7 C 98 % 1002 hPa 0,0 l/m 4,3 km/h (1 Bft) S-SW 200 0 min 0 min 0,4 C 0,7 C
04.11.2012 04:30 1,0 C 98 % 1002 hPa 0,0 l/m 5,2 km/h (1 Bft) S-SW45 210 0 min 0 min 0,7 C 1,0 C
04.11.2012 04:45 1,8 C 98 % 1002 hPa 0,0 l/m 13,2 km/h (3 Bft) S22.5 180 0 min 0 min 1,5 C -3,7 C
04.11.2012 05:00 2,3 C 98 % 1002 hPa 0,0 l/m 10,1 km/h (2 Bft) S-SO 160 0 min 0 min 2,0 C -1,0 C
04.11.2012 05:15 2,9 C 99 % 1002 hPa 0,0 l/m 9,2 km/h (2 Bft) S-SO45 160 0 min 0 min 2,8 C 0,4 C
04.11.2012 05:30 3,3 C 99 % 1002 hPa 0,0 l/m 12,1 km/h (2 Bft) S-SO22.5 160 0 min 0 min 3,2 C -1,3 C
04.11.2012 05:45 3,4 C 99 % 1002 hPa 0,0 l/m 14,6 km/h (3 Bft) S22.5 175 0 min 0 min 3,3 C -2,6 C
04.11.2012 06:00 3,3 C 99 % 1002 hPa 0,0 l/m 9,5 km/h (2 Bft) S-SO22.5 165 0 min 0 min 3,2 C 0,6 C
04.11.2012 06:15 3,3 C 99 % 1002 hPa 0,0 l/m 10,0 km/h (2 Bft) S-SO22.5 165 0 min 0 min 3,2 C 0,2 C
04.11.2012 06:30 3,3 C 99 % 1001 hPa 0,0 l/m 12,3 km/h (3 Bft) S22.5 175 0 min 0 min 3,2 C -1,4 C
04.11.2012 06:45 3,2 C 99 % 1001 hPa 0,0 l/m 10,2 km/h (2 Bft) S22.5 180 0 min 0 min 3,1 C -0,1 C
04.11.2012 07:00 3,3 C 99 % 1001 hPa 0,0 l/m 12,5 km/h (3 Bft) S-SO22.5 160 0 min 0 min 3,2 C -1,5 C
04.11.2012 07:15 3,4 C 99 % 1001 hPa 0,0 l/m 10,3 km/h (2 Bft) S22.5 175 0 min 0 min 3,3 C 0,1 C
04.11.2012 07:30 3,6 C 99 % 1001 hPa 0,0 l/m 6,7 km/h (2 Bft) S 170 0 min 0 min 3,5 C 3,3 C
04.11.2012 07:45 3,7 C 99 % 1001 hPa 0,0 l/m 9,1 km/h (2 Bft) S-SO 160 0 min 0 min 3,6 C 1,3 C
04.11.2012 08:00 3,8 C 99 % 1001 hPa 0,0 l/m 8,3 km/h (2 Bft) S-SO 160 0 min 0 min 3,7 C 2,1 C
04.11.2012 08:15 4,0 C 99 % 1001 hPa 0,0 l/m 8,6 km/h (2 Bft) S22.5 175 0 min 0 min 3,9 C 2,0 C
04.11.2012 08:30 4,2 C 99 % 1000 hPa 0,0 l/m 1,0 km/h (0 Bft) SO 135 0 min 0 min 4,1 C 4,2 C
04.11.2012 08:45 4,4 C 99 % 1000 hPa 0,0 l/m 8,1 km/h (2 Bft) S-SO22.5 155 0 min 0 min 4,3 C 2,9 C
04.11.2012 09:00 4,8 C 99 % 1000 hPa 0,0 l/m 14,9 km/h (3 Bft) S45 170 0 min 0 min 4,7 C -1,1 C
04.11.2012 09:15 4,9 C 99 % 1000 hPa 0,0 l/m 17,7 km/h (3 Bft) S22.5 170 0 min 0 min 4,8 C -2,3 C
04.11.2012 09:30 5,1 C 99 % 999 hPa 0,0 l/m 17,3 km/h (3 Bft) S-SO45 165 0 min 0 min 5,0 C -1,9 C
04.11.2012 09:45 4,9 C 98 % 999 hPa 0,0 l/m 24,3 km/h (4 Bft) S45 175 0 min 0 min 4,6 C -4,9 C
04.11.2012 10:00 4,9 C 98 % 1000 hPa 0,0 l/m 22,7 km/h (4 Bft) S45 170 0 min 0 min 4,6 C -4,3 C
04.11.2012 10:15 5,2 C 98 % 999 hPa 0,0 l/m 20,0 km/h (4 Bft) S45 185 0 min 0 min 4,9 C -2,9 C
04.11.2012 10:30 5,2 C 98 % 999 hPa 0,0 l/m 24,1 km/h (4 Bft) S-SO22.5 165 0 min 0 min 4,9 C -4,4 C
04.11.2012 10:45 5,1 C 97 % 999 hPa 0,0 l/m 25,5 km/h (4 Bft) S22.5 170 0 min 0 min 4,7 C -5,0 C
04.11.2012 11:00 5,2 C 97 % 998 hPa 0,0 l/m 22,6 km/h (4 Bft) S22.5 185 0 min 0 min 4,8 C -3,9 C
04.11.2012 11:15 5,5 C 97 % 998 hPa 0,0 l/m 21,3 km/h (4 Bft) S-SO22.5 160 0 min 0 min 5,1 C -3,0 C
04.11.2012 11:30 5,6 C 96 % 998 hPa 0,0 l/m 24,6 km/h (4 Bft) S45 180 0 min 0 min 5,0 C -4,0 C
04.11.2012 11:45 5,8 C 95 % 997 hPa 0,0 l/m 30,8 km/h (5 Bft) S45 190 0 min 0 min 5,1 C -5,4 C
04.11.2012 12:00 5,8 C 95 % 997 hPa 0,0 l/m 22,0 km/h (4 Bft) S22.5 175 0 min 0 min 5,1 C -2,9 C
04.11.2012 12:15 6,0 C 95 % 997 hPa 0,0 l/m 22,4 km/h (4 Bft) S45 190 0 min 0 min 5,3 C -2,7 C
04.11.2012 12:30 6,4 C 95 % 997 hPa 0,0 l/m 29,8 km/h (5 Bft) S22.5 180 0 min 0 min 5,7 C -4,4 C
04.11.2012 12:45 6,4 C 94 % 997 hPa 0,0 l/m 29,8 km/h (5 Bft) S-SW45 200 0 min 0 min 5,5 C -4,4 C
04.11.2012 13:00 6,5 C 94 % 996 hPa 0,0 l/m 28,0 km/h (4 Bft) S22.5 185 0 min 0 min 5,6 C -3,8 C
04.11.2012 13:15 6,8 C 94 % 996 hPa 0,0 l/m 23,9 km/h (4 Bft) S-SW67.5 200 0 min 0 min 5,9 C -2,2 C
04.11.2012 13:30 6,8 C 94 % 996 hPa 0,0 l/m 22,9 km/h (4 Bft) SW67.5 215 0 min 0 min 5,9 C -1,9 C
04.11.2012 13:45 6,7 C 94 % 996 hPa 0,0 l/m 24,1 km/h (4 Bft) S-SW67.5 205 0 min 0 min 5,8 C -2,4 C
04.11.2012 14:00 6,8 C 94 % 996 hPa 0,0 l/m 27,8 km/h (4 Bft) S-SW45 210 0 min 0 min 5,9 C -3,3 C
04.11.2012 14:15 6,8 C 95 % 995 hPa 0,0 l/m 35,8 km/h (5 Bft) S45 185 0 min 0 min 6,1 C -5,1 C
04.11.2012 14:30 6,9 C 95 % 995 hPa 0,0 l/m 26,5 km/h (4 Bft) S22.5 180 0 min 0 min 6,2 C -2,8 C
04.11.2012 14:45 6,9 C 96 % 995 hPa 0,0 l/m 27,0 km/h (4 Bft) S-SW45 205 0 min 0 min 6,3 C -2,9 C
04.11.2012 15:00 6,9 C 96 % 995 hPa 0,3 l/m 31,3 km/h (5 Bft) S67.5 185 0 min 15 min 6,3 C -4,0 C
04.11.2012 15:15 7,0 C 96 % 995 hPa 0,0 l/m 23,6 km/h (4 Bft) S45 175 0 min 0 min 6,4 C -1,8 C
04.11.2012 15:30 7,1 C 97 % 995 hPa 0,0 l/m 32,8 km/h (5 Bft) S-SW45 200 0 min 0 min 6,7 C -4,1 C
04.11.2012 15:45 7,3 C 96 % 995 hPa 0,0 l/m 42,2 km/h (6 Bft) SW45 230 0 min 0 min 6,7 C -5,5 C
04.11.2012 16:00 7,4 C 95 % 995 hPa 0,0 l/m 30,4 km/h (5 Bft) S-SW45 210 0 min 0 min 6,7 C -3,1 C
04.11.2012 16:15 7,4 C 93 % 995 hPa 0,0 l/m 43,7 km/h (6 Bft) SW67.5 220 0 min 0 min 6,3 C -5,5 C
04.11.2012 16:30 7,3 C 93 % 995 hPa 0,0 l/m 39,8 km/h (6 Bft) W-SW45 245 0 min 0 min 6,2 C -5,1 C
04.11.2012 16:45 7,1 C 92 % 995 hPa 0,0 l/m 47,2 km/h (6 Bft) W45 260 0 min 0 min 5,9 C -6,4 C
04.11.2012 17:00 6,3 C 90 % 995 hPa 0,0 l/m 36,7 km/h (5 Bft) W-SW45 255 0 min 0 min 4,8 C -6,0 C
04.11.2012 17:15 5,6 C 90 % 996 hPa 0,0 l/m 33,1 km/h (5 Bft) W-SW67.5 255 0 min 0 min 4,1 C -6,3 C
04.11.2012 17:30 5,1 C 91 % 996 hPa 0,0 l/m 32,8 km/h (5 Bft) W-SW22.5 255 0 min 0 min 3,8 C -6,9 C
04.11.2012 17:45 4,5 C 92 % 996 hPa 0,0 l/m 28,5 km/h (4 Bft) W-SW22.5 255 0 min 0 min 3,3 C -6,7 C
04.11.2012 18:00 4,1 C 92 % 996 hPa 0,0 l/m 11,4 km/h (2 Bft) SW45 235 0 min 0 min 2,9 C 0,1 C
04.11.2012 18:15 3,9 C 93 % 996 hPa 0,0 l/m 21,4 km/h (4 Bft) W45 260 0 min 0 min 2,9 C -5,2 C
04.11.2012 18:30 3,5 C 93 % 996 hPa 0,0 l/m 21,0 km/h (4 Bft) W-SW22.5 255 0 min 0 min 2,5 C -5,5 C
04.11.2012 18:45 3,3 C 94 % 996 hPa 0,0 l/m 21,1 km/h (4 Bft) W-SW22.5 250 0 min 0 min 2,4 C -5,8 C
04.11.2012 19:00 3,2 C 95 % 996 hPa 0,0 l/m 17,4 km/h (3 Bft) W-SW22.5 245 0 min 0 min 2,5 C -4,3 C
04.11.2012 19:15 3,2 C 95 % 996 hPa 0,0 l/m 22,9 km/h (4 Bft) SW22.5 225 0 min 0 min 2,5 C -6,6 C
04.11.2012 19:30 3,3 C 95 % 996 hPa 0,0 l/m 28,3 km/h (4 Bft) W-SW22.5 245 0 min 0 min 2,6 C -8,3 C
04.11.2012 19:45 3,5 C 96 % 996 hPa 0,0 l/m 18,8 km/h (3 Bft) W-SW22.5 255 0 min 0 min 2,9 C -4,6 C
04.11.2012 20:00 3,5 C 96 % 996 hPa 0,0 l/m 32,6 km/h (5 Bft) W-SW45 240 0 min 0 min 2,9 C -9,2 C
04.11.2012 20:15 3,3 C 95 % 997 hPa 0,0 l/m 22,7 km/h (4 Bft) SW45 235 0 min 0 min 2,6 C -6,4 C
04.11.2012 20:30 3,5 C 96 % 997 hPa 0,0 l/m 30,9 km/h (5 Bft) SW45 225 0 min 0 min 2,9 C -8,7 C
04.11.2012 20:45 3,6 C 96 % 997 hPa 0,0 l/m 21,4 km/h (4 Bft) SW45 220 0 min 0 min 3,0 C -5,5 C
04.11.2012 21:00 3,9 C 96 % 997 hPa 0,0 l/m 30,0 km/h (5 Bft) S-SW22.5 210 0 min 0 min 3,3 C -7,9 C
04.11.2012 21:15 4,1 C 96 % 997 hPa 0,0 l/m 30,5 km/h (5 Bft) W-SW45 240 0 min 0 min 3,5 C -7,8 C
04.11.2012 21:30 4,2 C 95 % 997 hPa 0,0 l/m 33,5 km/h (5 Bft) SW45 215 0 min 0 min 3,5 C -8,4 C
04.11.2012 21:45 4,3 C 95 % 997 hPa 0,0 l/m 31,6 km/h (5 Bft) SW45 215 0 min 0 min 3,6 C -7,8 C
04.11.2012 22:00 4,3 C 94 % 997 hPa 0,0 l/m 37,0 km/h (5 Bft) SW45 230 0 min 0 min 3,4 C -9,0 C
04.11.2012 22:15 4,3 C 95 % 997 hPa 0,0 l/m 40,2 km/h (6 Bft) S-SW45 210 0 min 0 min 3,6 C -9,6 C
04.11.2012 22:30 4,3 C 95 % 997 hPa 0,0 l/m 34,6 km/h (5 Bft) SW45 230 0 min 0 min 3,6 C -8,5 C
04.11.2012 22:45 4,4 C 95 % 997 hPa 0,0 l/m 36,0 km/h (5 Bft) SW22.5 230 0 min 0 min 3,7 C -8,6 C
04.11.2012 23:00 4,3 C 95 % 997 hPa 0,0 l/m 31,8 km/h (5 Bft) SW45 225 0 min 0 min 3,6 C -7,8 C
04.11.2012 23:15 4,3 C 94 % 997 hPa 0,0 l/m 35,8 km/h (5 Bft) SW45 225 0 min 0 min 3,4 C -8,7 C
04.11.2012 23:30 4,1 C 94 % 997 hPa 0,0 l/m 23,3 km/h (4 Bft) W-SW45 240 0 min 0 min 3,2 C -5,6 C
04.11.2012 23:45 4,0 C 94 % 997 hPa 0,0 l/m 27,0 km/h (4 Bft) SW45 230 0 min 0 min 3,1 C -6,9 C
04.11.2012 23:54 4,0 C 94 % 997 hPa 0,0 l/m 26,0 km/h (4 Bft) W-SW45 240 0 min 0 min 3,1 C -6,6 C
_ Min-Zeit 04:15 17:00 14:15 - 04:00 - - - - 04:15 22:15
Minimum _ 0,7 C 90 % 995 hPa - 0,3 km/h (0 Bft) - - - - 0,4 C -9,6 C
_ Max-Zeit 16:00 05:15 01:15 15:00 16:45 - - 00:00 15:00 15:45 08:30
Maximum _ 7,4 C 99 % 1003 hPa 0,3 l/m 47,2 km/h
W (6 Bft)
- - 0 min 15 min 6,7 C 4,2 C
Durchschnitt _ 4,3 C 96 % 999 hPa #0,3 l/m 20,9 km/h (4 Bft) S - #0 min. #15 min. 3,8 C -3,1 C